createdAt,value
2022-08-17T00:00:34.570Z,97284.59
2022-08-17T00:03:13.570Z,97282.60
2022-08-17T00:06:11.374Z,97290.58
2022-08-17T00:08:44.252Z,97287.37
2022-08-17T00:11:19.246Z,97280.55
2022-08-17T00:13:51.688Z,97279.48
2022-08-17T00:16:56.081Z,97277.03
2022-08-17T00:19:25.666Z,97271.61
2022-08-17T00:22:32.214Z,97268.96
2022-08-17T00:24:44.079Z,97270.67
2022-08-17T00:27:11.009Z,97268.21
2022-08-17T00:29:37.828Z,97267.97
2022-08-17T00:33:14.414Z,97269.17
2022-08-17T00:34:52.249Z,97265.30
2022-08-17T00:37:19.113Z,97260.63
2022-08-17T00:39:45.989Z,97261.56
2022-08-17T00:42:18.141Z,97257.41
2022-08-17T00:44:45.111Z,97256.99
2022-08-17T00:47:12.847Z,97254.26
2022-08-17T00:49:40.138Z,97254.71
2022-08-17T00:52:19.992Z,97256.99
2022-08-17T00:54:51.612Z,97259.29
2022-08-17T00:57:29.369Z,97259.73
2022-08-17T01:00:05.308Z,97260.81
2022-08-17T01:02:41.736Z,97265.14
2022-08-17T01:05:18.562Z,97261.95
2022-08-17T01:07:48.361Z,97262.40
2022-08-17T01:10:59.967Z,97259.95
2022-08-17T01:13:06.751Z,97263.30
2022-08-17T01:15:42.233Z,97269.70
2022-08-17T01:18:14.043Z,97268.32
2022-08-17T01:20:48.742Z,97269.42
2022-08-17T01:23:20.715Z,97269.54
2022-08-17T01:25:55.823Z,97268.52
2022-08-17T01:28:52.663Z,97265.47
2022-08-17T01:31:12.331Z,97266.96
2022-08-17T01:33:39.301Z,97268.70
2022-08-17T01:36:07.851Z,97270.10
2022-08-17T01:38:37.307Z,97266.56
2022-08-17T01:41:13.166Z,97264.94
2022-08-17T01:43:58.493Z,97267.51
2022-08-17T01:46:33.956Z,97262.13
2022-08-17T01:49:04.878Z,97261.56
2022-08-17T01:51:33.183Z,97263.61
2022-08-17T01:54:05.350Z,97264.08
2022-08-17T01:56:34.700Z,97258.18
2022-08-17T01:59:02.356Z,97260.11
2022-08-17T02:01:33.018Z,97262.26
2022-08-17T02:04:01.915Z,97265.30
2022-08-17T02:06:52.959Z,97271.09
2022-08-17T02:09:26.275Z,97275.71
2022-08-17T02:12:00.149Z,97276.02
2022-08-17T02:14:46.950Z,97273.95
2022-08-17T02:17:13.803Z,97271.86
2022-08-17T02:19:41.292Z,97270.11
2022-08-17T02:22:08.739Z,97265.83
2022-08-17T02:24:59.933Z,97276.28
2022-08-17T02:27:25.304Z,97274.48
2022-08-17T02:29:52.263Z,97278.47
2022-08-17T02:32:27.513Z,97275.02
2022-08-17T02:34:57.461Z,97274.17
2022-08-17T02:37:30.250Z,97270.23
2022-08-17T02:39:58.507Z,97269.74
2022-08-17T02:42:46.099Z,97271.05
2022-08-17T02:45:18.001Z,97276.81
2022-08-17T02:47:45.408Z,97283.25
2022-08-17T02:50:15.487Z,97283.79
2022-08-17T02:52:44.310Z,97285.11
2022-08-17T02:55:27.506Z,97281.16
2022-08-17T02:57:55.049Z,97286.70
2022-08-17T03:00:33.421Z,97288.13
2022-08-17T03:03:02.216Z,97288.39
2022-08-17T03:05:32.832Z,97286.15
2022-08-17T03:08:00.489Z,97285.30
2022-08-17T03:10:27.637Z,97287.71
2022-08-17T03:12:55.043Z,97292.27
2022-08-17T03:15:27.216Z,97297.48
2022-08-17T03:17:56.102Z,97299.74
2022-08-17T03:20:24.301Z,97293.55
2022-08-17T03:22:55.916Z,97296.73
2022-08-17T03:25:35.276Z,97297.84
2022-08-17T03:28:04.105Z,97297.63
2022-08-17T03:30:31.558Z,97302.13
2022-08-17T03:33:02.980Z,97307.66
2022-08-17T03:35:33.427Z,97310.69
2022-08-17T03:38:01.423Z,97316.41
2022-08-17T03:40:55.875Z,97322.10
2022-08-17T03:43:19.517Z,97326.14
2022-08-17T03:46:04.940Z,97329.30
2022-08-17T03:48:51.413Z,97330.30
2022-08-17T03:51:42.417Z,97332.08
2022-08-17T03:54:29.260Z,97337.76
2022-08-17T03:57:01.665Z,97342.06
2022-08-17T03:59:29.004Z,97344.86
2022-08-17T04:02:00.888Z,97343.29
2022-08-17T04:04:28.052Z,97346.71
2022-08-17T04:06:55.281Z,97352.27
2022-08-17T04:09:22.152Z,97352.37
2022-08-17T04:11:49.029Z,97351.34
2022-08-17T04:14:15.871Z,97353.13
2022-08-17T04:16:42.698Z,97353.54
2022-08-17T04:19:09.524Z,97354.96
2022-08-17T04:21:36.515Z,97354.60
2022-08-17T04:24:05.115Z,97353.17
2022-08-17T04:26:53.313Z,97354.30
2022-08-17T04:29:19.395Z,97353.47
2022-08-17T04:31:46.554Z,97352.23
2022-08-17T04:34:13.438Z,97352.38
2022-08-17T04:36:40.232Z,97347.80
2022-08-17T04:39:17.315Z,97345.42
2022-08-17T04:42:02.754Z,97346.52
2022-08-17T04:44:37.375Z,97350.02
2022-08-17T04:47:06.532Z,97357.31
2022-08-17T04:49:34.508Z,97356.69
2022-08-17T04:52:04.544Z,97355.74
2022-08-17T04:54:31.960Z,97350.30
2022-08-17T04:56:58.830Z,97354.38
2022-08-17T04:59:25.637Z,97358.14
2022-08-17T05:01:52.468Z,97360.83
2022-08-17T05:04:33.626Z,97361.53
2022-08-17T05:07:03.913Z,97363.71
2022-08-17T05:09:31.246Z,97360.77
2022-08-17T05:12:01.948Z,97360.15
2022-08-17T05:14:33.308Z,97358.02
2022-08-17T05:17:01.529Z,97354.31
2022-08-17T05:19:31.493Z,97358.44
2022-08-17T05:21:58.285Z,97356.98
2022-08-17T05:24:40.731Z,97362.19
2022-08-17T05:27:18.758Z,97360.92
2022-08-17T05:29:46.143Z,97365.55
2022-08-17T05:32:39.220Z,97361.02
2022-08-17T05:35:00.863Z,97362.80
2022-08-17T05:37:28.153Z,97368.78
2022-08-17T05:39:55.046Z,97368.67
2022-08-17T05:42:22.201Z,97371.74
2022-08-17T05:44:49.301Z,97374.81
2022-08-17T05:47:17.640Z,97375.10
2022-08-17T05:49:44.908Z,97376.70
2022-08-17T05:52:43.234Z,97377.02
2022-08-17T05:55:24.090Z,97379.23
2022-08-17T05:58:04.318Z,97375.26
2022-08-17T06:01:01.630Z,97375.55
2022-08-17T06:04:05.761Z,97377.23
2022-08-17T06:07:01.237Z,97374.15
2022-08-17T06:10:06.877Z,97372.27
2022-08-17T06:12:48.104Z,97373.54
2022-08-17T06:15:39.664Z,97366.30
2022-08-17T06:18:10.128Z,97365.88
2022-08-17T06:20:58.391Z,97362.59
2022-08-17T06:23:58.801Z,97363.26
2022-08-17T06:26:38.470Z,97362.23
2022-08-17T06:29:29.670Z,97355.69
2022-08-17T06:31:57.049Z,97351.13
2022-08-17T06:34:23.990Z,97354.59
2022-08-17T06:37:04.918Z,97352.79
2022-08-17T06:39:53.180Z,97350.34
2022-08-17T06:42:59.888Z,97348.91
2022-08-17T06:46:10.881Z,97348.65
2022-08-17T06:48:51.761Z,97345.20
2022-08-17T06:51:39.783Z,97348.59
2022-08-17T06:54:38.861Z,97349.17
2022-08-17T06:57:25.904Z,97354.18
2022-08-17T07:00:01.216Z,97358.20
2022-08-17T07:02:56.296Z,97360.89
2022-08-17T07:06:17.640Z,97368.98
2022-08-17T07:09:05.974Z,97379.06
2022-08-17T07:11:58.341Z,97380.41
2022-08-17T07:14:52.704Z,97380.89
2022-08-17T07:17:46.522Z,97384.23
2022-08-17T07:20:15.035Z,97376.80
2022-08-17T07:23:04.077Z,97373.52
2022-08-17T07:25:30.973Z,97374.25
2022-08-17T07:28:06.835Z,97373.40
2022-08-17T07:30:46.886Z,97372.38
2022-08-17T07:33:26.894Z,97373.36
2022-08-17T07:35:56.699Z,97369.95
2022-08-17T07:38:34.847Z,97367.24
2022-08-17T07:41:08.333Z,97365.19
2022-08-17T07:43:40.656Z,97367.31
2022-08-17T07:46:45.761Z,97365.80
2022-08-17T07:49:12.504Z,97365.95
2022-08-17T07:51:41.977Z,97364.01
2022-08-17T07:54:15.049Z,97362.77
2022-08-17T07:56:59.921Z,97362.70
2022-08-17T07:59:34.057Z,97363.84
2022-08-17T08:02:05.615Z,97363.21
2022-08-17T08:05:06.763Z,97362.79
2022-08-17T08:07:59.493Z,97360.85
2022-08-17T08:10:35.052Z,97360.73
2022-08-17T08:13:20.123Z,97362.00
2022-08-17T08:15:54.034Z,97361.08
2022-08-17T08:18:53.773Z,97355.61
2022-08-17T08:21:51.557Z,97353.18
2022-08-17T08:24:40.098Z,97358.73
2022-08-17T08:27:26.665Z,97357.02
2022-08-17T08:30:23.201Z,97358.23
2022-08-17T08:33:07.044Z,97358.37
2022-08-17T08:35:43.810Z,97358.15
2022-08-17T08:38:41.992Z,97359.90
2022-08-17T08:41:37.988Z,97362.94
2022-08-17T08:45:04.254Z,97358.80
2022-08-17T08:47:53.313Z,97355.11
2022-08-17T08:50:39.798Z,97356.27
2022-08-17T08:53:35.659Z,97358.48
2022-08-17T08:56:23.141Z,97354.77
2022-08-17T08:58:58.775Z,97352.48
2022-08-17T09:01:42.337Z,97353.13
2022-08-17T09:05:10.389Z,97353.13
2022-08-17T09:07:42.269Z,97352.06
2022-08-17T09:10:57.764Z,97352.21
2022-08-17T09:13:27.160Z,97352.71
2022-08-17T09:16:06.310Z,97352.80
2022-08-17T09:19:00.554Z,97351.98
2022-08-17T09:21:54.948Z,97355.02
2022-08-17T09:24:43.115Z,97360.36
2022-08-17T09:27:47.442Z,97359.56
2022-08-17T09:30:14.373Z,97362.52
2022-08-17T09:32:49.250Z,97361.27
2022-08-17T09:35:32.806Z,97366.59
2022-08-17T09:38:12.757Z,97361.17
2022-08-17T09:41:19.063Z,97360.81
2022-08-17T09:44:31.710Z,97362.62
2022-08-17T09:47:12.631Z,97365.76
2022-08-17T09:49:50.416Z,97364.87
2022-08-17T09:52:27.809Z,97362.84
2022-08-17T09:54:57.589Z,97374.61
2022-08-17T09:58:04.635Z,97372.29
2022-08-17T10:00:43.853Z,97374.16
2022-08-17T10:03:25.460Z,97371.80
2022-08-17T10:06:12.852Z,97367.00
2022-08-17T10:09:07.533Z,97364.52
2022-08-17T10:12:23.146Z,97360.06
2022-08-17T10:15:12.944Z,97357.20
2022-08-17T10:17:55.025Z,97356.29
2022-08-17T10:20:30.314Z,97356.06
2022-08-17T10:23:34.700Z,97360.09
2022-08-17T10:26:24.345Z,97355.98
2022-08-17T10:29:03.761Z,97349.56
2022-08-17T10:31:46.051Z,97344.94
2022-08-17T10:34:45.094Z,97343.09
2022-08-17T10:37:30.387Z,97344.41
2022-08-17T10:40:31.761Z,97343.98
2022-08-17T10:43:44.033Z,97340.70
2022-08-17T10:47:10.772Z,97341.63
2022-08-17T10:49:46.997Z,97334.36
2022-08-17T10:52:19.640Z,97333.63
2022-08-17T10:55:05.452Z,97335.50
2022-08-17T10:57:36.322Z,97332.70
2022-08-17T11:00:34.612Z,97330.73
2022-08-17T11:03:07.352Z,97329.83
2022-08-17T11:06:04.916Z,97327.48
2022-08-17T11:08:43.581Z,97328.52
2022-08-17T11:11:38.462Z,97326.80
2022-08-17T11:14:28.583Z,97333.48
2022-08-17T11:17:19.613Z,97335.04
2022-08-17T11:20:23.241Z,97335.15
2022-08-17T11:23:32.044Z,97337.71
2022-08-17T11:26:07.986Z,97338.98
2022-08-17T11:28:50.359Z,97336.52
2022-08-17T11:31:38.487Z,97332.27
2022-08-17T11:34:25.758Z,97327.60
2022-08-17T11:37:17.225Z,97323.70
2022-08-17T11:40:09.245Z,97319.55
2022-08-17T11:42:42.004Z,97318.10
2022-08-17T11:45:35.253Z,97316.44
2022-08-17T11:48:40.035Z,97309.93
2022-08-17T11:51:35.574Z,97310.27
2022-08-17T11:56:52.907Z,97302.74
2022-08-17T11:59:43.056Z,97299.42
2022-08-17T12:02:32.400Z,97299.52
2022-08-17T12:05:01.831Z,97294.73
2022-08-17T12:07:32.452Z,97290.14
2022-08-17T12:10:00.675Z,97294.14
2022-08-17T12:12:35.165Z,97289.14
2022-08-17T12:15:10.708Z,97289.34
2022-08-17T12:17:51.925Z,97292.84
2022-08-17T12:20:39.999Z,97290.89
2022-08-17T12:23:15.557Z,97287.29
2022-08-17T12:25:58.781Z,97290.61
2022-08-17T12:28:30.318Z,97286.69
2022-08-17T12:31:11.169Z,97283.38
2022-08-17T12:33:45.480Z,97282.11
2022-08-17T12:36:20.881Z,97278.86
2022-08-17T12:39:14.214Z,97271.23
2022-08-17T12:41:47.371Z,97276.08
2022-08-17T12:44:31.475Z,97276.02
2022-08-17T12:47:21.982Z,97274.95
2022-08-17T12:50:03.432Z,97274.68
2022-08-17T12:52:32.436Z,97276.80
2022-08-17T12:55:01.276Z,97274.59
2022-08-17T12:57:43.330Z,97275.98
2022-08-17T13:00:21.572Z,97276.06
2022-08-17T13:02:52.880Z,97276.42
2022-08-17T13:05:37.871Z,97271.19
2022-08-17T13:08:34.932Z,97273.17
2022-08-17T13:11:18.995Z,97275.14
2022-08-17T13:13:55.500Z,97271.84
2022-08-17T13:16:30.361Z,97277.59
2022-08-17T13:19:15.306Z,97272.36
2022-08-17T13:21:49.409Z,97268.29
2022-08-17T13:24:23.523Z,97269.05
2022-08-17T13:27:07.980Z,97273.74
2022-08-17T13:29:59.932Z,97270.50
2022-08-17T13:32:44.098Z,97271.10
2022-08-17T13:35:50.117Z,97277.65
2022-08-17T13:38:49.076Z,97288.02
2022-08-17T13:41:37.295Z,97288.19
2022-08-17T13:44:34.558Z,97284.05
2022-08-17T13:47:03.945Z,97287.91
2022-08-17T13:49:48.659Z,97286.32
2022-08-17T13:52:42.556Z,97286.52
2022-08-17T13:55:22.141Z,97289.48
2022-08-17T13:58:03.639Z,97288.24
2022-08-17T14:00:36.139Z,97286.05
2022-08-17T14:03:04.598Z,97288.08
2022-08-17T14:05:33.288Z,97285.86
2022-08-17T14:08:06.910Z,97290.15
2022-08-17T14:10:35.841Z,97294.06
2022-08-17T14:13:03.515Z,97293.79
2022-08-17T14:15:55.078Z,97293.02
2022-08-17T14:18:55.405Z,97289.45
2022-08-17T14:21:07.824Z,97286.05
2022-08-17T14:23:36.557Z,97286.52
2022-08-17T14:26:04.226Z,97289.23
2022-08-17T14:28:31.041Z,97284.41
2022-08-17T14:31:00.562Z,97280.77
2022-08-17T14:33:28.480Z,97285.38
2022-08-17T14:35:56.994Z,97295.28
2022-08-17T14:38:24.116Z,97290.20
2022-08-17T14:40:51.464Z,97294.38
2022-08-17T14:43:19.770Z,97300.60
2022-08-17T14:45:46.666Z,97301.61
2022-08-17T14:48:13.568Z,97298.17
2022-08-17T14:50:42.895Z,97301.92
2022-08-17T14:53:13.541Z,97304.95
2022-08-17T14:55:40.689Z,97312.14
2022-08-17T14:58:08.389Z,97310.70
2022-08-17T15:00:38.866Z,97309.05
2022-08-17T15:03:05.703Z,97305.63
2022-08-17T15:05:35.969Z,97306.08
2022-08-17T15:08:04.886Z,97308.08
2022-08-17T15:10:32.659Z,97306.13
2022-08-17T15:12:59.797Z,97305.38
2022-08-17T15:15:27.435Z,97305.98
2022-08-17T15:17:54.280Z,97300.77
2022-08-17T15:20:27.210Z,97297.96
2022-08-17T15:22:55.543Z,97298.67
2022-08-17T15:25:25.352Z,97308.41
2022-08-17T15:27:53.236Z,97312.14
2022-08-17T15:30:20.659Z,97318.56
2022-08-17T15:32:54.583Z,97327.76
2022-08-17T15:35:28.941Z,97334.16
2022-08-17T15:38:03.392Z,97346.11
2022-08-17T15:40:39.825Z,97375.64
2022-08-17T15:43:10.890Z,97397.27
2022-08-17T15:45:38.683Z,97401.65
2022-08-17T15:48:05.588Z,97405.17
2022-08-17T15:50:32.520Z,97419.21
2022-08-17T15:53:01.626Z,97422.50
2022-08-17T15:55:30.577Z,97425.97
2022-08-17T15:57:57.847Z,97415.77
2022-08-17T16:00:25.524Z,97411.20
2022-08-17T16:03:44.451Z,97418.15
2022-08-17T16:05:41.055Z,97416.66
2022-08-17T16:08:10.348Z,97418.30
2022-08-17T16:10:37.532Z,97420.28
2022-08-17T16:13:04.523Z,97424.35
2022-08-17T16:15:31.919Z,97423.23
2022-08-17T16:17:59.205Z,97414.19
2022-08-17T16:20:26.786Z,97413.91
2022-08-17T16:22:54.972Z,97415.02
2022-08-17T16:25:38.281Z,97412.33
2022-08-17T16:28:16.300Z,97406.14
2022-08-17T16:30:43.704Z,97407.46
2022-08-17T16:33:11.710Z,97411.77
2022-08-17T16:35:39.263Z,97412.95
2022-08-17T16:38:07.119Z,97418.26
2022-08-17T16:40:35.837Z,97423.61
2022-08-17T16:43:11.433Z,97423.24
2022-08-17T16:45:39.678Z,97424.49
2022-08-17T16:48:08.845Z,97425.02
2022-08-17T16:50:36.357Z,97420.13
2022-08-17T16:53:16.597Z,97424.80
2022-08-17T16:55:46.068Z,97430.23
2022-08-17T16:58:14.742Z,97432.58
2022-08-17T17:00:44.458Z,97435.59
2022-08-17T17:03:19.033Z,97440.02
2022-08-17T17:06:18.721Z,97453.35
2022-08-17T17:08:51.158Z,97455.70
2022-08-17T17:11:30.648Z,97454.59
2022-08-17T17:14:01.448Z,97452.63
2022-08-17T17:16:28.172Z,97456.89
2022-08-17T17:18:59.443Z,97451.86
2022-08-17T17:21:37.264Z,97452.89
2022-08-17T17:24:11.771Z,97456.35
2022-08-17T17:27:18.021Z,97449.67
2022-08-17T17:30:07.082Z,97451.98
2022-08-17T17:32:55.641Z,97447.77
2022-08-17T17:35:33.932Z,97447.27
2022-08-17T17:38:12.197Z,97449.70
2022-08-17T17:40:47.033Z,97450.88
2022-08-17T17:43:37.690Z,97451.90
2022-08-17T17:46:28.568Z,97452.45
2022-08-17T17:48:59.985Z,97454.85
2022-08-17T17:52:06.859Z,97452.98
2022-08-17T17:54:59.711Z,97452.08
2022-08-17T17:58:04.883Z,97454.50
2022-08-17T18:01:23.872Z,97461.48
2022-08-17T18:04:08.878Z,97469.57
2022-08-17T18:07:06.699Z,97469.36
2022-08-17T18:10:03.234Z,97467.51
2022-08-17T18:12:59.627Z,97467.96
2022-08-17T18:15:50.390Z,97474.20
2022-08-17T18:18:17.117Z,97473.30
2022-08-17T18:20:54.069Z,97471.84
2022-08-17T18:23:28.148Z,97467.39
2022-08-17T18:25:58.030Z,97469.83
2022-08-17T18:28:40.490Z,97471.91
2022-08-17T18:31:19.502Z,97475.48
2022-08-17T18:33:51.836Z,97472.27
2022-08-17T18:36:39.199Z,97469.58
2022-08-17T18:39:29.152Z,97470.69
2022-08-17T18:41:59.849Z,97471.17
2022-08-17T18:44:39.915Z,97469.43
2022-08-17T18:47:28.750Z,97470.00
2022-08-17T18:50:24.903Z,97477.70
2022-08-17T18:52:54.548Z,97479.98
2022-08-17T18:55:30.692Z,97480.26
2022-08-17T18:58:15.417Z,97482.38
2022-08-17T19:00:46.797Z,97478.40
2022-08-17T19:03:17.265Z,97475.17
2022-08-17T19:05:56.326Z,97477.73
2022-08-17T19:08:29.163Z,97480.83
2022-08-17T19:11:18.350Z,97482.10
2022-08-17T19:13:54.624Z,97488.18
2022-08-17T19:16:29.489Z,97491.75
2022-08-17T19:19:22.749Z,97492.88
2022-08-17T19:22:02.709Z,97489.48
2022-08-17T19:24:33.700Z,97489.54
2022-08-17T19:27:25.726Z,97491.20
2022-08-17T19:30:10.835Z,97492.59
2022-08-17T19:32:38.067Z,97487.76
2022-08-17T19:35:15.023Z,97486.19
2022-08-17T19:37:50.908Z,97488.66
2022-08-17T19:40:52.983Z,97491.48
2022-08-17T19:43:47.457Z,97493.41
2022-08-17T19:46:14.241Z,97488.09
2022-08-17T19:49:41.011Z,97485.80
2022-08-17T19:52:56.662Z,97485.42
2022-08-17T19:56:11.568Z,97481.23
2022-08-17T19:59:07.929Z,97488.10
2022-08-17T20:02:11.092Z,97485.98
2022-08-17T20:04:44.556Z,97487.04
2022-08-17T20:07:53.963Z,97482.30
2022-08-17T20:10:44.925Z,97482.24
2022-08-17T20:13:33.516Z,97485.90
2022-08-17T20:16:03.070Z,97487.23
2022-08-17T20:18:32.842Z,97489.23
2022-08-17T20:21:26.199Z,97491.91
2022-08-17T20:24:28.508Z,97499.75
2022-08-17T20:27:00.985Z,97499.36
2022-08-17T20:29:54.472Z,97502.70
2022-08-17T20:32:28.999Z,97494.54
2022-08-17T20:35:29.802Z,97490.50
2022-08-17T20:38:06.022Z,97487.88
2022-08-17T20:40:56.790Z,97490.80
2022-08-17T20:43:32.548Z,97495.64
2022-08-17T20:46:35.858Z,97490.69
2022-08-17T20:49:26.409Z,97491.46
2022-08-17T20:52:15.996Z,97490.20
2022-08-17T20:54:52.256Z,97492.02
2022-08-17T20:57:31.424Z,97492.65
2022-08-17T21:00:00.369Z,97490.33
2022-08-17T21:02:28.890Z,97491.82
2022-08-17T21:04:56.324Z,97491.59
2022-08-17T21:07:48.040Z,97494.55
2022-08-17T21:10:33.637Z,97493.80
2022-08-17T21:13:37.764Z,97489.05
2022-08-17T21:16:42.349Z,97488.18
2022-08-17T21:20:09.746Z,97485.42
2022-08-17T21:22:59.674Z,97482.55
2022-08-17T21:25:41.821Z,97481.42
2022-08-17T21:29:00.603Z,97485.52
2022-08-17T21:31:33.185Z,97483.99
2022-08-17T21:34:26.768Z,97482.95
2022-08-17T21:36:56.159Z,97484.20
2022-08-17T21:39:39.722Z,97484.26
2022-08-17T21:42:07.542Z,97482.14
2022-08-17T21:44:46.839Z,97481.52
2022-08-17T21:47:24.933Z,97489.33
2022-08-17T21:49:55.108Z,97488.08
2022-08-17T21:52:26.314Z,97492.33
2022-08-17T21:55:01.888Z,97490.67
2022-08-17T21:57:31.277Z,97492.33
2022-08-17T22:00:15.133Z,97493.63
2022-08-17T22:02:42.850Z,97496.73
2022-08-17T22:05:14.021Z,97490.81
2022-08-17T22:08:01.569Z,97492.63
2022-08-17T22:10:33.853Z,97497.66
2022-08-17T22:13:16.826Z,97496.52
2022-08-17T22:15:48.424Z,97501.83
2022-08-17T22:18:28.256Z,97500.11
2022-08-17T22:20:58.662Z,97499.53
2022-08-17T22:23:52.893Z,97498.76
2022-08-17T22:26:24.107Z,97494.58
2022-08-17T22:28:57.891Z,97493.35
2022-08-17T22:31:28.981Z,97493.89
2022-08-17T22:34:01.257Z,97496.45
2022-08-17T22:36:38.427Z,97493.80
2022-08-17T22:39:07.945Z,97496.59
2022-08-17T22:42:00.192Z,97495.48
2022-08-17T22:44:47.317Z,97495.45
2022-08-17T22:47:14.040Z,97489.16
2022-08-17T22:49:53.753Z,97489.20
2022-08-17T22:52:32.383Z,97488.06
2022-08-17T22:55:35.431Z,97487.94
2022-08-17T22:58:28.510Z,97485.02
2022-08-17T23:00:55.665Z,97486.38
2022-08-17T23:03:27.363Z,97486.67
2022-08-17T23:06:10.400Z,97487.33
2022-08-17T23:08:54.041Z,97488.11
2022-08-17T23:11:36.797Z,97492.39
2022-08-17T23:14:13.935Z,97492.77
2022-08-17T23:16:42.008Z,97494.57
2022-08-17T23:19:15.145Z,97491.27
2022-08-17T23:21:46.490Z,97494.69
2022-08-17T23:24:21.745Z,97495.13
2022-08-17T23:26:49.080Z,97488.85
2022-08-17T23:29:15.958Z,97491.23
2022-08-17T23:31:42.909Z,97489.04
2022-08-17T23:34:12.811Z,97484.30
2022-08-17T23:36:39.834Z,97484.66
2022-08-17T23:39:07.209Z,97483.79
2022-08-17T23:41:39.374Z,97479.84
2022-08-17T23:44:06.684Z,97474.00
2022-08-17T23:46:34.009Z,97478.33
2022-08-17T23:49:01.187Z,97473.92
2022-08-17T23:51:37.674Z,97475.84
2022-08-17T23:54:27.692Z,97472.48
2022-08-17T23:56:54.696Z,97470.28
2022-08-17T23:59:22.907Z,97476.60
